Time;durP1;ratioP1;P1;durP2;ratioP2;P2;SDS_P1;SDS_P2;PMS_P1;PMS_P2;Temp;Humidity;BMP_temperature;BMP_pressure;BME280_temperature;BME280_humidity;BME280_pressure;Samples;Min_cycle;Max_cycle;Signal;HPM_P1;HPM_P2
2021/01/30 00:00:40;;;;;;;;;;;8.30;99.90;;;;;;5086264;28;19969;-74
2021/01/30 00:03:06;;;;;;;;;;;8.30;99.90;;;;;;5109084;28;19912;-74
2021/01/30 00:05:32;;;;;;;;;;;8.30;99.90;;;;;;5103614;28;20003;-74
2021/01/30 00:08:03;;;;;;;;;;;8.30;99.90;;;;;;5094963;28;19912;-73
2021/01/30 00:10:28;;;;;;;;;;;8.20;99.90;;;;;;5113080;28;19978;-73
2021/01/30 00:12:54;;;;;;;;;;;8.20;99.90;;;;;;5103851;28;19912;-76
2021/01/30 00:15:24;;;;;;;;;;;8.20;99.90;;;;;;5103530;28;20011;-73
2021/01/30 00:17:50;;;;;;;;;;;8.20;99.90;;;;;;5094165;28;20380;-73
2021/01/30 00:20:18;;;;;;;;;;;8.20;99.90;;;;;;5088500;28;19916;-74
2021/01/30 00:22:44;;;;;;;;;;;8.20;99.90;;;;;;5082312;28;20003;-75
2021/01/30 00:25:10;;;;;;;;;;;8.20;99.90;;;;;;5088557;28;20000;-73
2021/01/30 00:27:36;;;;;;;;;;;8.20;99.90;;;;;;5089504;28;19918;-74
2021/01/30 00:30:03;;;;;;;;;;;8.30;99.90;;;;;;5094698;28;20197;-74
2021/01/30 00:32:29;;;;;;;;;;;8.30;99.90;;;;;;5097656;28;19923;-73
2021/01/30 00:34:54;;;;;;;;;;;8.20;99.90;;;;;;5106126;28;19908;-74
2021/01/30 00:37:22;;;;;;;;;;;8.20;99.90;;;;;;5101062;28;19908;-74
2021/01/30 00:39:47;;;;;;;;;;;8.20;99.90;;;;;;5106116;28;20446;-73
2021/01/30 00:42:14;;;;;;;;;;;8.10;99.90;;;;;;5100717;28;19958;-73
2021/01/30 00:44:40;;;;;;;;;;;8.10;99.90;;;;;;5094706;28;19911;-75
2021/01/30 00:47:06;;;;;;;;;;;8.00;99.90;;;;;;5076219;28;19919;-73
2021/01/30 00:49:31;;;;;;;;;;;8.00;99.90;;;;;;5100061;28;19918;-74
2021/01/30 00:51:57;;;;;;;;;;;8.00;96.10;;;;;;5100558;28;19911;-73
2021/01/30 00:54:22;;;;;;;;;;;8.00;99.90;;;;;;5105371;28;19916;-76
2021/01/30 00:56:49;;;;;;;;;;;8.00;99.90;;;;;;5093507;28;20002;-75
2021/01/30 00:59:15;;;;;;;;;;;8.00;99.90;;;;;;5094181;28;19912;-75
2021/01/30 01:01:40;;;;;;;;;;;8.00;99.90;;;;;;5097493;28;20003;-74
2021/01/30 01:04:06;;;;;;;;;;;7.90;99.90;;;;;;5084430;28;19917;-75
2021/01/30 01:06:32;;;;;;;;;;;7.90;99.90;;;;;;5097078;28;19918;-75
2021/01/30 01:08:58;;;;;;;;;;;7.90;99.90;;;;;;5084038;28;20339;-76
2021/01/30 01:11:23;;;;;;;;;;;7.80;99.90;;;;;;5101103;28;19937;-75
2021/01/30 01:13:49;;;;;;;;;;;7.80;99.90;;;;;;5091611;28;19912;-75
2021/01/30 01:16:15;;;;;;;;;;;7.80;99.90;;;;;;5086905;28;20391;-75
2021/01/30 01:18:40;;;;;;;;;;;7.70;99.90;;;;;;5101603;28;19935;-74
2021/01/30 01:21:05;;;;;;;;;;;7.70;99.90;;;;;;5095967;28;19916;-74
2021/01/30 01:23:31;;;;;;;;;;;7.60;99.90;;;;;;5095563;28;19918;-75
2021/01/30 01:25:56;;;;;;;;;;;7.70;99.90;;;;;;5098427;28;19923;-74
2021/01/30 01:28:22;;;;;;;;;;;7.70;99.90;;;;;;5105943;28;20448;-75
2021/01/30 01:30:47;;;;;;;;;;;7.80;99.90;;;;;;5099825;28;19912;-75
2021/01/30 01:33:13;;;;;;;;;;;7.80;99.90;;;;;;5100870;28;19960;-75
2021/01/30 01:35:38;;;;;;;;;;;7.80;99.90;;;;;;5099036;28;19938;-74
2021/01/30 01:38:04;;;;;;;;;;;7.80;99.90;;;;;;5086025;28;19919;-75
2021/01/30 01:40:36;;;;;;;;;;;7.80;99.90;;;;;;5103347;28;19924;-75
2021/01/30 01:43:04;;;;;;;;;;;7.80;99.90;;;;;;5086406;28;19916;-75
2021/01/30 01:45:29;;;;;;;;;;;7.90;99.90;;;;;;5097156;28;20617;-73
2021/01/30 01:47:55;;;;;;;;;;;7.90;99.90;;;;;;5086985;28;19912;-74
2021/01/30 01:50:24;;;;;;;;;;;7.90;99.90;;;;;;5102891;28;19941;-75
2021/01/30 01:52:50;;;;;;;;;;;8.00;99.90;;;;;;5100353;28;19913;-75
2021/01/30 01:55:18;;;;;;;;;;;8.00;99.90;;;;;;5096290;28;20264;-75
2021/01/30 01:57:46;;;;;;;;;;;8.10;99.90;;;;;;5086286;28;19912;-74
2021/01/30 02:00:11;;;;;;;;;;;8.10;99.90;;;;;;5096030;28;19934;-75
2021/01/30 02:02:37;;;;;;;;;;;8.10;99.90;;;;;;5095514;28;19985;-74
2021/01/30 02:05:05;;;;;;;;;;;8.10;99.90;;;;;;5105016;28;19934;-74
2021/01/30 02:07:35;;;;;;;;;;;8.10;99.90;;;;;;5090509;28;19918;-74
2021/01/30 02:10:00;;;;;;;;;;;8.10;99.90;;;;;;5091960;28;19944;-75
2021/01/30 02:12:26;;;;;;;;;;;8.10;99.90;;;;;;5096046;28;19919;-75
2021/01/30 02:14:53;;;;;;;;;;;8.00;99.90;;;;;;5086902;28;20015;-74
2021/01/30 02:17:26;;;;;;;;;;;7.90;99.90;;;;;;5094416;28;19944;-74
2021/01/30 02:20:00;;;;;;;;;;;7.90;99.90;;;;;;5091370;28;19912;-74
2021/01/30 02:22:44;;;;;;;;;;;7.90;99.90;;;;;;5077639;28;20007;-74
2021/01/30 02:25:28;;;;;;;;;;;7.90;99.90;;;;;;5076643;28;19939;-74
2021/01/30 02:28:12;;;;;;;;;;;7.90;99.90;;;;;;5084333;28;19920;-75
2021/01/30 02:31:01;;;;;;;;;;;7.80;99.90;;;;;;5086191;28;19965;-75
2021/01/30 02:33:55;;;;;;;;;;;7.80;99.90;;;;;;5054883;28;20003;-74
2021/01/30 02:36:21;;;;;;;;;;;7.90;99.90;;;;;;5083886;28;20283;-75
2021/01/30 02:38:50;;;;;;;;;;;7.90;99.90;;;;;;5090095;28;19912;-74
2021/01/30 02:41:20;;;;;;;;;;;7.80;99.90;;;;;;5100892;28;19989;-76
2021/01/30 02:43:46;;;;;;;;;;;7.80;99.90;;;;;;5099376;28;19908;-74
2021/01/30 02:46:20;;;;;;;;;;;7.80;99.90;;;;;;5101718;28;20064;-74
2021/01/30 02:48:47;;;;;;;;;;;7.80;99.90;;;;;;5093148;28;19916;-74
2021/01/30 02:51:15;;;;;;;;;;;7.70;99.90;;;;;;5106721;28;19911;-76
2021/01/30 02:53:45;;;;;;;;;;;7.70;99.90;;;;;;5097460;28;19922;-74
2021/01/30 02:56:11;;;;;;;;;;;7.60;99.90;;;;;;5082128;28;19913;-74
2021/01/30 02:58:51;;;;;;;;;;;7.60;99.90;;;;;;5101874;28;19919;-74
2021/01/30 03:01:17;;;;;;;;;;;7.60;99.90;;;;;;5084716;28;20353;-74
2021/01/30 03:03:43;;;;;;;;;;;7.50;99.90;;;;;;5078398;28;19913;-75
2021/01/30 03:06:22;;;;;;;;;;;7.30;99.90;;;;;;5092503;28;19916;-74
2021/01/30 03:08:54;;;;;;;;;;;7.30;99.90;;;;;;5085892;28;19936;-74
2021/01/30 03:11:24;;;;;;;;;;;7.30;99.90;;;;;;5084146;28;20371;-74
2021/01/30 03:13:55;;;;;;;;;;;7.20;99.90;;;;;;5078648;28;19921;-74
2021/01/30 03:16:23;;;;;;;;;;;7.20;99.90;;;;;;5087437;28;19944;-74
2021/01/30 03:18:57;;;;;;;;;;;7.10;99.90;;;;;;5081978;28;19912;-74
2021/01/30 03:21:23;;;;;;;;;;;7.20;99.90;;;;;;5089302;28;19920;-74
2021/01/30 03:23:50;;;;;;;;;;;7.20;99.90;;;;;;5089518;28;20299;-74
2021/01/30 03:26:17;;;;;;;;;;;7.20;99.90;;;;;;5096562;28;19959;-76
2021/01/30 03:28:42;;;;;;;;;;;7.20;99.90;;;;;;5094858;28;19919;-74
2021/01/30 03:31:08;;;;;;;;;;;7.20;99.90;;;;;;5095658;28;20382;-74
2021/01/30 03:33:34;;;;;;;;;;;7.30;99.90;;;;;;5099088;28;19912;-75
2021/01/30 03:35:59;;;;;;;;;;;7.40;99.90;;;;;;5100595;28;19995;-75
2021/01/30 03:38:25;;;;;;;;;;;7.40;99.90;;;;;;5100160;28;20003;-75
2021/01/30 03:40:50;;;;;;;;;;;7.40;99.90;;;;;;5110388;28;19915;-75
2021/01/30 03:43:16;;;;;;;;;;;7.40;99.90;;;;;;5080990;28;19913;-75
2021/01/30 03:45:41;;;;;;;;;;;7.40;99.90;;;;;;5076801;28;20371;-74
2021/01/30 03:48:07;;;;;;;;;;;7.30;99.90;;;;;;5081606;28;19912;-75
2021/01/30 03:50:33;;;;;;;;;;;7.40;99.90;;;;;;5090735;28;20268;-74
2021/01/30 03:52:58;;;;;;;;;;;7.40;99.90;;;;;;5084030;28;20391;-75
2021/01/30 03:55:24;;;;;;;;;;;7.40;99.90;;;;;;5089050;28;19913;-75
2021/01/30 03:57:50;;;;;;;;;;;7.30;99.90;;;;;;5088140;28;19916;-74
2021/01/30 04:00:18;;;;;;;;;;;7.40;99.90;;;;;;5085991;28;19913;-75
2021/01/30 04:02:43;;;;;;;;;;;7.30;99.90;;;;;;5085541;28;19912;-75
2021/01/30 04:05:09;;;;;;;;;;;7.40;99.90;;;;;;5090554;28;19945;-76
2021/01/30 04:07:35;;;;;;;;;;;7.30;99.90;;;;;;5102838;28;20001;-76
2021/01/30 04:10:01;;;;;;;;;;;7.30;99.90;;;;;;5095828;28;19924;-74
2021/01/30 04:12:26;;;;;;;;;;;7.30;99.90;;;;;;5100941;28;19913;-76
2021/01/30 04:14:51;;;;;;;;;;;7.30;99.90;;;;;;5095271;28;19913;-76
2021/01/30 04:17:17;;;;;;;;;;;7.30;99.90;;;;;;5103074;28;20252;-75
2021/01/30 04:19:42;;;;;;;;;;;7.30;99.90;;;;;;5084653;28;19939;-74
2021/01/30 04:22:08;;;;;;;;;;;7.30;99.90;;;;;;5083167;28;19917;-74
2021/01/30 04:24:33;;;;;;;;;;;7.30;99.90;;;;;;5089833;28;19912;-76
2021/01/30 04:26:59;;;;;;;;;;;7.30;99.90;;;;;;5090401;28;19938;-75
2021/01/30 04:29:24;;;;;;;;;;;7.30;99.90;;;;;;5091309;28;19944;-75
2021/01/30 04:31:57;;;;;;;;;;;7.30;99.90;;;;;;5100409;28;20558;-74
2021/01/30 04:34:22;;;;;;;;;;;7.30;99.90;;;;;;5085716;28;20402;-75
2021/01/30 04:36:48;;;;;;;;;;;7.30;99.90;;;;;;5089708;28;19912;-76
2021/01/30 04:39:13;;;;;;;;;;;7.40;99.90;;;;;;5091677;28;20371;-75
2021/01/30 04:41:51;;;;;;;;;;;7.30;99.90;;;;;;5098520;28;19923;-76
2021/01/30 04:44:36;;;;;;;;;;;7.40;99.90;;;;;;5098248;28;19951;-76
2021/01/30 04:47:22;;;;;;;;;;;7.40;99.90;;;;;;5103088;28;20044;-76
2021/01/30 04:50:01;;;;;;;;;;;7.40;99.90;;;;;;5090743;28;19981;-76
2021/01/30 04:52:32;;;;;;;;;;;7.40;99.90;;;;;;5115784;28;19912;-75
2021/01/30 04:55:06;;;;;;;;;;;7.40;99.90;;;;;;5093142;28;19913;-76
2021/01/30 04:57:44;;;;;;;;;;;7.40;99.90;;;;;;5101661;28;19920;-77
2021/01/30 05:00:19;;;;;;;;;;;7.40;99.90;;;;;;5093102;28;19924;-76
2021/01/30 05:03:00;;;;;;;;;;;7.40;99.90;;;;;;5102058;28;19911;-77
2021/01/30 05:05:27;;;;;;;;;;;7.40;99.90;;;;;;5089168;28;19979;-75
2021/01/30 05:07:55;;;;;;;;;;;7.50;99.90;;;;;;5096710;28;19916;-75
2021/01/30 05:10:29;;;;;;;;;;;7.40;99.90;;;;;;5099339;28;19912;-76
2021/01/30 05:12:58;;;;;;;;;;;7.40;99.90;;;;;;5093081;28;20392;-75
2021/01/30 05:15:27;;;;;;;;;;;7.40;99.90;;;;;;5100927;28;20463;-76
2021/01/30 05:18:01;;;;;;;;;;;7.40;99.90;;;;;;5083474;28;19916;-75
2021/01/30 05:20:32;;;;;;;;;;;7.40;99.90;;;;;;5084761;28;19921;-76
2021/01/30 05:22:58;;;;;;;;;;;7.40;99.90;;;;;;5080167;28;19916;-76
2021/01/30 05:25:24;;;;;;;;;;;7.50;99.90;;;;;;5099616;28;20394;-77
2021/01/30 05:28:13;;;;;;;;;;;7.50;99.90;;;;;;5078470;28;20399;-75
2021/01/30 05:30:51;;;;;;;;;;;7.50;99.90;;;;;;5087963;28;19943;-75
2021/01/30 05:33:25;;;;;;;;;;;7.50;99.90;;;;;;5081581;28;20456;-75
2021/01/30 05:35:51;;;;;;;;;;;7.50;99.90;;;;;;5104745;28;19916;-75
2021/01/30 05:38:35;;;;;;;;;;;7.60;99.90;;;;;;5081615;28;20000;-75
2021/01/30 05:41:03;;;;;;;;;;;7.60;99.90;;;;;;5107918;28;19920;-74
2021/01/30 05:43:37;;;;;;;;;;;7.50;99.90;;;;;;5086047;28;19943;-74
2021/01/30 05:46:04;;;;;;;;;;;7.50;99.90;;;;;;5106060;28;20294;-76
2021/01/30 05:48:37;;;;;;;;;;;7.50;99.90;;;;;;5080795;28;19919;-76
2021/01/30 05:51:03;;;;;;;;;;;7.50;99.90;;;;;;5109570;28;20379;-76
2021/01/30 05:53:28;;;;;;;;;;;7.50;99.90;;;;;;5087274;28;19920;-76
2021/01/30 05:55:55;;;;;;;;;;;7.50;99.90;;;;;;5101516;28;19994;-76
2021/01/30 05:58:21;;;;;;;;;;;7.50;99.90;;;;;;5090117;28;19962;-76
2021/01/30 06:00:46;;;;;;;;;;;7.50;99.90;;;;;;5112464;28;19923;-75
2021/01/30 06:03:13;;;;;;;;;;;7.50;99.90;;;;;;5080233;28;20112;-75
2021/01/30 06:05:44;;;;;;;;;;;7.50;99.90;;;;;;5079872;28;19982;-76
2021/01/30 06:08:12;;;;;;;;;;;7.50;99.90;;;;;;5084454;28;19916;-76
2021/01/30 06:10:37;;;;;;;;;;;7.50;99.90;;;;;;5088858;28;20293;-75
2021/01/30 06:13:23;;;;;;;;;;;7.50;99.90;;;;;;5077590;28;19916;-75
2021/01/30 06:15:50;;;;;;;;;;;7.50;99.90;;;;;;5086334;28;19912;-74
2021/01/30 06:18:17;;;;;;;;;;;7.40;99.90;;;;;;5118158;28;19957;-75
2021/01/30 06:20:54;;;;;;;;;;;7.40;99.90;;;;;;5111820;28;19920;-75
2021/01/30 06:23:20;;;;;;;;;;;7.40;99.90;;;;;;5088674;28;20380;-75
2021/01/30 06:25:45;;;;;;;;;;;7.40;99.90;;;;;;5099034;28;19913;-75
2021/01/30 06:28:14;;;;;;;;;;;7.40;99.90;;;;;;5092385;28;19912;-75
2021/01/30 06:30:42;;;;;;;;;;;7.40;99.90;;;;;;5093498;28;20306;-76
2021/01/30 06:33:22;;;;;;;;;;;7.30;99.90;;;;;;5091533;28;19999;-75
2021/01/30 06:35:48;;;;;;;;;;;7.30;99.90;;;;;;5089608;28;19946;-75
2021/01/30 06:38:17;;;;;;;;;;;7.30;99.90;;;;;;5094460;28;20347;-75
2021/01/30 06:40:54;;;;;;;;;;;7.20;99.90;;;;;;5103291;28;19941;-76
2021/01/30 06:43:26;;;;;;;;;;;7.20;99.90;;;;;;5100444;28;20286;-75
2021/01/30 06:46:00;;;;;;;;;;;7.20;99.90;;;;;;5106961;28;19912;-76
2021/01/30 06:48:38;;;;;;;;;;;7.30;99.90;;;;;;5098365;28;19918;-76
2021/01/30 06:51:19;;;;;;;;;;;7.30;99.90;;;;;;5082072;28;19916;-75
2021/01/30 06:53:44;;;;;;;;;;;7.30;99.90;;;;;;5079993;28;19912;-74
2021/01/30 06:56:15;;;;;;;;;;;7.30;99.90;;;;;;5081604;28;19919;-73
2021/01/30 06:58:42;;;;;;;;;;;7.30;99.90;;;;;;5080561;28;19919;-75
2021/01/30 07:01:09;;;;;;;;;;;7.30;99.90;;;;;;5091200;28;20260;-75
2021/01/30 07:03:54;;;;;;;;;;;7.30;99.90;;;;;;5079445;28;19911;-73
2021/01/30 07:06:23;;;;;;;;;;;7.40;99.90;;;;;;5098698;28;19912;-73
2021/01/30 07:08:55;;;;;;;;;;;7.40;99.90;;;;;;5097522;28;19912;-73
2021/01/30 07:11:34;;;;;;;;;;;7.40;99.90;;;;;;5097392;28;19913;-74
2021/01/30 07:14:02;;;;;;;;;;;7.40;99.90;;;;;;5085125;28;20273;-74
2021/01/30 07:16:33;;;;;;;;;;;7.50;99.90;;;;;;5076628;28;20392;-74
2021/01/30 07:19:09;;;;;;;;;;;7.50;99.90;;;;;;5083064;28;19920;-74
2021/01/30 07:21:38;;;;;;;;;;;7.50;99.90;;;;;;5076334;28;19974;-74
2021/01/30 07:24:10;;;;;;;;;;;7.50;99.90;;;;;;5093850;28;19912;-73
2021/01/30 07:26:35;;;;;;;;;;;7.50;99.90;;;;;;5077582;28;19923;-74
2021/01/30 07:29:08;;;;;;;;;;;7.60;97.80;;;;;;5083080;28;19912;-73
2021/01/30 07:31:39;;;;;;;;;;;7.60;92.80;;;;;;5086463;28;19912;-74
2021/01/30 07:34:19;;;;;;;;;;;7.60;93.40;;;;;;5084126;28;20007;-73
2021/01/30 07:36:51;;;;;;;;;;;7.60;89.80;;;;;;5084015;28;19912;-73
2021/01/30 07:39:32;;;;;;;;;;;7.70;91.20;;;;;;5084357;28;19912;-74
2021/01/30 07:42:00;;;;;;;;;;;7.70;91.90;;;;;;5087045;28;19939;-74
2021/01/30 07:44:28;;;;;;;;;;;7.70;89.30;;;;;;5101768;28;19912;-74
2021/01/30 07:47:03;;;;;;;;;;;7.70;88.00;;;;;;5087512;28;19920;-72
2021/01/30 07:49:32;;;;;;;;;;;7.80;91.40;;;;;;5097827;28;19942;-73
2021/01/30 07:52:08;;;;;;;;;;;7.80;94.70;;;;;;5095683;28;19912;-73
2021/01/30 07:54:37;;;;;;;;;;;7.80;97.10;;;;;;5104637;28;19913;-72
2021/01/30 07:57:15;;;;;;;;;;;7.80;99.90;;;;;;5106730;28;19912;-73
2021/01/30 07:59:47;;;;;;;;;;;7.80;99.90;;;;;;5094565;28;19943;-74
2021/01/30 08:02:24;;;;;;;;;;;7.80;97.80;;;;;;5100019;28;19970;-73
2021/01/30 08:04:49;;;;;;;;;;;7.80;98.80;;;;;;5105393;28;19912;-72
2021/01/30 08:07:21;;;;;;;;;;;7.80;93.50;;;;;;5093391;28;20192;-74
2021/01/30 08:10:05;;;;;;;;;;;7.80;95.20;;;;;;5078921;28;20287;-74
2021/01/30 08:12:33;;;;;;;;;;;7.80;95.20;;;;;;5091200;28;19930;-73
2021/01/30 08:15:07;;;;;;;;;;;7.90;91.30;;;;;;5086057;28;19913;-75
2021/01/30 08:17:47;;;;;;;;;;;7.90;80.30;;;;;;5092467;28;19921;-73
2021/01/30 08:20:16;;;;;;;;;;;8.00;72.40;;;;;;5100193;28;19913;-73
2021/01/30 08:22:50;;;;;;;;;;;8.00;80.20;;;;;;5093123;28;19947;-74
2021/01/30 08:25:20;;;;;;;;;;;8.10;81.90;;;;;;5081532;28;20363;-73
2021/01/30 08:27:53;;;;;;;;;;;8.10;59.10;;;;;;5100035;28;19912;-75
2021/01/30 08:30:21;;;;;;;;;;;8.20;50.80;;;;;;5076796;28;19913;-72
2021/01/30 08:33:00;;;;;;;;;;;8.20;42.70;;;;;;5105668;28;19911;-74
2021/01/30 08:35:25;;;;;;;;;;;8.30;46.30;;;;;;5092375;28;19912;-74
2021/01/30 08:38:03;;;;;;;;;;;8.30;30.60;;;;;;5102501;28;19965;-73
2021/01/30 08:40:47;;;;;;;;;;;8.30;38.00;;;;;;5097572;28;19919;-74
2021/01/30 08:43:19;;;;;;;;;;;8.30;36.70;;;;;;5101084;28;20007;-75
2021/01/30 08:45:45;;;;;;;;;;;8.40;29.70;;;;;;5100294;28;19918;-75
2021/01/30 08:48:16;;;;;;;;;;;8.40;27.50;;;;;;5094863;28;19916;-74
2021/01/30 08:50:44;;;;;;;;;;;8.40;33.60;;;;;;5091081;28;19997;-73
2021/01/30 08:53:14;;;;;;;;;;;8.40;36.10;;;;;;5095878;28;19999;-73
2021/01/30 08:55:46;;;;;;;;;;;8.40;38.40;;;;;;5102884;28;19912;-73
2021/01/30 08:58:30;;;;;;;;;;;8.60;23.30;;;;;;5104400;28;19935;-74
2021/01/30 09:00:57;;;;;;;;;;;8.70;1.00;;;;;;5096036;28;19969;-73
2021/01/30 09:03:40;;;;;;;;;;;8.70;14.40;;;;;;5105323;28;19916;-74
2021/01/30 09:06:07;;;;;;;;;;;8.60;6.40;;;;;;5089739;28;19907;-72
2021/01/30 09:08:37;;;;;;;;;;;8.60;2.30;;;;;;5105071;28;19975;-73
2021/01/30 09:11:21;;;;;;;;;;;8.70;8.70;;;;;;5087022;28;20399;-74
2021/01/30 09:14:01;;;;;;;;;;;8.70;1.00;;;;;;5090341;28;19959;-74
2021/01/30 09:16:34;;;;;;;;;;;8.70;1.00;;;;;;5094018;28;20007;-74
2021/01/30 09:19:01;;;;;;;;;;;8.70;1.10;;;;;;5089967;28;19912;-73
2021/01/30 09:21:39;;;;;;;;;;;8.80;1.00;;;;;;5093228;28;19913;-75
2021/01/30 09:24:29;;;;;;;;;;;8.80;1.00;;;;;;5101033;28;19916;-73
2021/01/30 09:26:57;;;;;;;;;;;8.80;1.00;;;;;;5093208;28;20425;-75
2021/01/30 09:29:34;;;;;;;;;;;8.90;1.00;;;;;;5097486;28;19942;-75
2021/01/30 09:31:59;;;;;;;;;;;8.90;1.00;;;;;;5100852;28;19918;-74
2021/01/30 09:34:28;;;;;;;;;;;9.00;1.00;;;;;;5107211;28;19932;-72
2021/01/30 09:36:53;;;;;;;;;;;9.00;1.00;;;;;;5123224;28;20283;-73
2021/01/30 09:39:21;;;;;;;;;;;9.00;1.00;;;;;;5108493;28;19916;-76
2021/01/30 09:41:46;;;;;;;;;;;9.00;1.00;;;;;;5098352;28;19925;-75
2021/01/30 09:44:23;;;;;;;;;;;9.00;1.00;;;;;;5111112;28;19911;-73
2021/01/30 09:46:51;;;;;;;;;;;9.10;1.00;;;;;;5100932;28;19983;-73
2021/01/30 09:49:20;;;;;;;;;;;9.10;1.00;;;;;;5111100;28;19936;-74
2021/01/30 09:51:46;;;;;;;;;;;9.20;1.00;;;;;;5095653;28;19912;-74
2021/01/30 09:54:14;;;;;;;;;;;9.30;1.00;;;;;;5098812;28;19979;-74
2021/01/30 09:56:40;;;;;;;;;;;9.30;1.00;;;;;;5093051;28;19961;-75
2021/01/30 09:59:06;;;;;;;;;;;9.40;1.00;;;;;;5091750;28;19968;-74
2021/01/30 10:01:37;;;;;;;;;;;9.40;1.00;;;;;;5078461;28;19952;-75
2021/01/30 10:04:32;;;;;;;;;;;9.50;1.00;;;;;;5075636;28;19916;-76
2021/01/30 10:07:06;;;;;;;;;;;9.40;1.00;;;;;;5070013;28;19919;-74
2021/01/30 10:11:20;;;;;;;7.95;2.15;;;9.40;1.00;;;;;;5099392;27;1403770;-75
2021/01/30 10:13:58;;;;;;;7.78;1.80;;;9.60;1.00;;;;;;5097692;28;20040;-75
2021/01/30 10:16:25;;;;;;;7.45;2.40;;;9.60;1.00;;;;;;5101025;28;20115;-74
2021/01/30 10:19:23;;;;;;;6.60;1.90;;;9.70;1.00;;;;;;5091651;28;20052;-74
2021/01/30 10:21:49;;;;;;;7.55;1.95;;;9.70;1.00;;;;;;5097004;28;20040;-76
2021/01/30 10:24:22;;;;;;;4.75;1.80;;;9.70;1.00;;;;;;5102902;28;20032;-76
2021/01/30 10:26:50;;;;;;;8.75;2.63;;;9.70;1.00;;;;;;5083213;28;20035;-74
2021/01/30 10:29:18;;;;;;;7.05;2.15;;;9.70;1.00;;;;;;5110560;28;20055;-75
2021/01/30 10:31:46;;;;;;;7.25;2.25;;;9.70;1.00;;;;;;5100854;28;20021;-75
2021/01/30 10:34:35;;;;;;;8.27;2.65;;;9.60;1.00;;;;;;5106811;28;20047;-75
2021/01/30 10:37:07;;;;;;;8.70;1.83;;;9.70;1.00;;;;;;5092429;28;20020;-75
2021/01/30 10:39:41;;;;;;;10.40;2.70;;;9.80;1.00;;;;;;5104049;28;20066;-73
2021/01/30 10:42:19;;;;;;;6.40;1.85;;;9.70;1.00;;;;;;5107919;28;20024;-75
2021/01/30 10:44:46;;;;;;;4.75;1.88;;;9.70;1.00;;;;;;5114219;28;20470;-74
2021/01/30 10:47:13;;;;;;;7.35;1.50;;;9.60;1.00;;;;;;5108457;28;20031;-76
2021/01/30 10:49:39;;;;;;;7.78;1.50;;;9.60;1.00;;;;;;5104319;28;20035;-75
2021/01/30 10:52:12;;;;;;;10.50;2.40;;;9.60;1.00;;;;;;5103354;28;20037;-75
2021/01/30 10:54:41;;;;;;;7.32;1.75;;;9.50;1.00;;;;;;5107507;28;20506;-76
2021/01/30 10:57:18;;;;;;;4.18;1.77;;;9.50;1.00;;;;;;5112254;28;20027;-74
2021/01/30 10:59:46;;;;;;;3.60;1.55;;;9.40;1.00;;;;;;5113255;28;20020;-73
2021/01/30 11:02:37;;;;;;;3.97;2.08;;;9.40;7.60;;;;;;5115426;28;20027;-75
2021/01/30 11:05:09;;;;;;;7.00;1.35;;;9.30;19.70;;;;;;5120155;28;20426;-74
2021/01/30 11:07:43;;;;;;;4.78;1.75;;;9.40;33.00;;;;;;5101818;28;20036;-75
2021/01/30 11:10:19;;;;;;;5.20;1.40;;;9.30;49.50;;;;;;5097386;28;20032;-75
2021/01/30 11:12:44;;;;;;;6.63;1.58;;;9.30;47.70;;;;;;5094863;28;20105;-74
2021/01/30 11:15:22;;;;;;;4.82;1.25;;;9.30;56.80;;;;;;5091731;28;20052;-74
2021/01/30 11:17:48;;;;;;;5.97;1.48;;;9.30;74.70;;;;;;5097836;28;20016;-75
2021/01/30 11:20:38;;;;;;;6.50;1.70;;;9.30;59.40;;;;;;5098242;28;20062;-76
2021/01/30 11:23:05;;;;;;;3.95;1.30;;;9.20;66.60;;;;;;5095132;28;20030;-74
2021/01/30 11:25:38;;;;;;;3.90;1.20;;;9.30;91.40;;;;;;5098312;28;20035;-76
2021/01/30 11:28:04;;;;;;;8.10;2.45;;;9.30;74.50;;;;;;5100832;28;20373;-76
2021/01/30 11:30:29;;;;;;;5.22;1.35;;;9.50;83.70;;;;;;5088587;28;20547;-76
2021/01/30 11:32:57;;;;;;;5.00;1.40;;;9.50;78.20;;;;;;5053162;28;20055;-77
2021/01/30 11:35:33;;;;;;;4.93;1.38;;;9.40;99.80;;;;;;5090197;28;20020;-77
2021/01/30 11:38:03;;;;;;;7.80;2.10;;;9.40;99.50;;;;;;5079920;28;20032;-77
2021/01/30 11:40:29;;;;;;;4.00;1.45;;;9.40;69.90;;;;;;5091477;28;20173;-77
2021/01/30 11:42:54;;;;;;;2.65;1.33;;;9.40;39.40;;;;;;5098438;28;20059;-77
2021/01/30 11:45:20;;;;;;;2.83;1.40;;;9.40;68.80;;;;;;5099532;28;20050;-76
2021/01/30 11:47:45;;;;;;;7.20;2.20;;;9.40;99.90;;;;;;5082568;28;20054;-76
2021/01/30 11:50:11;;;;;;;6.50;1.80;;;9.30;98.50;;;;;;5101926;28;20035;-76
2021/01/30 11:52:37;;;;;;;6.68;1.65;;;9.30;90.00;;;;;;5090484;28;20020;-76
2021/01/30 11:55:04;;;;;;;6.07;1.40;;;9.40;73.60;;;;;;5086284;28;20026;-76
2021/01/30 11:57:30;;;;;;;5.32;1.85;;;9.40;90.90;;;;;;5088576;28;20508;-76
2021/01/30 11:59:56;;;;;;;4.20;1.02;;;9.40;53.20;;;;;;5078016;28;20024;-75
2021/01/30 12:02:39;;;;;;;4.15;1.08;;;9.50;60.90;;;;;;5094023;28;20035;-75
2021/01/30 12:05:08;;;;;;;7.50;1.30;;;9.50;47.10;;;;;;5073983;28;20024;-76
2021/01/30 12:07:35;;;;;;;6.05;1.58;;;9.40;57.10;;;;;;5089609;28;20429;-76
2021/01/30 12:10:01;;;;;;;6.20;1.75;;;9.30;80.20;;;;;;5093686;28;20068;-76
2021/01/30 12:12:27;;;;;;;4.60;1.23;;;9.40;75.30;;;;;;5089528;28;20020;-77
2021/01/30 12:14:53;;;;;;;5.88;1.60;;;9.40;75.30;;;;;;5073766;28;20024;-76
2021/01/30 12:17:32;;;;;;;5.82;1.60;;;9.30;92.50;;;;;;5095384;28;20388;-77
2021/01/30 12:19:58;;;;;;;3.33;1.02;;;9.40;94.60;;;;;;5089000;28;20107;-75
2021/01/30 12:22:23;;;;;;;3.15;1.23;;;9.30;6.50;;;;;;5090230;28;20049;-77
2021/01/30 12:24:49;;;;;;;3.28;1.15;;;9.20;44.20;;;;;;5087196;28;20035;-77
2021/01/30 12:27:17;;;;;;;5.82;1.27;;;9.10;60.50;;;;;;5086339;28;20100;-76
2021/01/30 12:29:44;;;;;;;5.03;1.90;;;9.10;90.80;;;;;;5090823;28;20029;-77
2021/01/30 12:32:12;;;;;;;10.00;1.90;;;9.10;99.90;;;;;;5107345;28;20028;-76
2021/01/30 12:34:38;;;;;;;5.40;1.38;;;9.10;99.90;;;;;;5086748;28;20023;-75
2021/01/30 12:37:04;;;;;;;4.50;1.52;;;9.00;99.90;;;;;;5081498;28;20021;-75
2021/01/30 12:39:30;;;;;;;5.68;1.88;;;9.10;99.90;;;;;;5093460;28;20040;-77
2021/01/30 12:41:55;;;;;;;5.18;1.70;;;9.00;99.90;;;;;;5091783;28;20067;-76
2021/01/30 12:44:22;;;;;;;6.70;2.50;;;8.90;99.90;;;;;;5094309;28;20028;-77
2021/01/30 12:46:49;;;;;;;6.22;2.00;;;8.80;99.90;;;;;;5095197;28;20032;-77
2021/01/30 12:49:15;;;;;;;9.85;2.38;;;8.80;99.90;;;;;;5093383;28;20027;-76
2021/01/30 12:51:41;;;;;;;4.78;2.03;;;8.80;99.90;;;;;;5104324;28;20020;-76
2021/01/30 12:54:08;;;;;;;7.82;3.75;;;8.80;99.90;;;;;;5112230;28;20004;-76
2021/01/30 12:56:34;;;;;;;4.80;1.80;;;8.70;99.90;;;;;;5111066;28;20012;-76
2021/01/30 12:59:00;;;;;;;7.55;1.95;;;8.70;99.90;;;;;;5102107;28;20040;-76
2021/01/30 13:01:26;;;;;;;5.70;1.42;;;8.70;99.90;;;;;;5095704;28;20035;-78
2021/01/30 13:03:52;;;;;;;3.88;1.85;;;8.70;99.90;;;;;;5078074;28;20025;-78
2021/01/30 13:06:18;;;;;;;9.98;1.75;;;8.70;99.90;;;;;;5094371;28;20032;-77
2021/01/30 13:08:47;;;;;;;5.00;1.83;;;8.80;99.90;;;;;;5074059;28;20023;-78
2021/01/30 13:11:14;;;;;;;7.03;1.80;;;8.70;99.90;;;;;;5089526;28;20056;-77
2021/01/30 13:13:40;;;;;;;5.22;1.75;;;8.70;99.90;;;;;;5096706;28;20055;-77
2021/01/30 13:16:06;;;;;;;6.25;2.03;;;8.60;99.90;;;;;;5093215;28;20091;-78
2021/01/30 13:18:32;;;;;;;6.95;1.98;;;8.60;99.90;;;;;;5084992;28;20020;-78
2021/01/30 13:20:58;;;;;;;5.85;1.63;;;8.60;99.90;;;;;;5094709;28;20047;-78
2021/01/30 13:23:25;;;;;;;5.93;2.40;;;8.60;99.90;;;;;;5070748;28;20012;-78
2021/01/30 13:25:52;;;;;;;5.53;1.90;;;8.60;99.90;;;;;;5089156;28;20027;-76
2021/01/30 13:28:18;;;;;;;7.80;1.92;;;8.50;99.90;;;;;;5084201;28;20035;-77
2021/01/30 13:30:44;;;;;;;7.90;1.80;;;8.50;99.90;;;;;;5076559;28;20036;-76
2021/01/30 13:33:09;;;;;;;6.00;2.17;;;8.50;99.90;;;;;;5106066;28;20024;-76
2021/01/30 13:35:35;;;;;;;5.72;2.05;;;8.60;99.90;;;;;;5101259;28;20029;-75
2021/01/30 13:38:01;;;;;;;5.18;1.70;;;8.60;99.90;;;;;;5100610;28;20218;-76
2021/01/30 13:40:27;;;;;;;6.28;2.70;;;8.60;99.90;;;;;;5101184;28;20255;-77
2021/01/30 13:42:53;;;;;;;5.18;2.03;;;8.50;99.90;;;;;;5076842;28;20023;-78
2021/01/30 13:45:19;;;;;;;4.03;2.15;;;8.40;99.90;;;;;;5093533;28;20046;-77
2021/01/30 13:47:45;;;;;;;8.30;1.92;;;8.40;99.90;;;;;;5086477;28;20064;-77
2021/01/30 13:50:11;;;;;;;9.45;2.35;;;8.40;99.90;;;;;;5088694;28;20078;-77
2021/01/30 13:52:37;;;;;;;16.15;3.47;;;8.30;99.90;;;;;;5080355;28;20016;-76
2021/01/30 13:55:03;;;;;;;9.10;2.70;;;8.40;99.90;;;;;;5084861;28;20031;-76
2021/01/30 13:57:29;;;;;;;5.32;2.40;;;8.30;99.90;;;;;;5073154;28;20052;-77
2021/01/30 13:59:55;;;;;;;7.82;2.08;;;8.20;99.90;;;;;;5082469;28;20519;-77
2021/01/30 14:02:22;;;;;;;5.53;2.63;;;8.20;99.90;;;;;;5080203;28;20028;-78
2021/01/30 14:04:47;;;;;;;10.85;2.90;;;8.30;99.90;;;;;;5085367;28;20035;-77
2021/01/30 14:07:13;;;;;;;5.95;2.33;;;8.20;99.90;;;;;;5076758;28;20507;-76
2021/01/30 14:09:39;;;;;;;6.50;2.00;;;8.20;99.90;;;;;;5090177;28;20032;-77
2021/01/30 14:12:05;;;;;;;7.05;2.70;;;8.20;99.90;;;;;;5089232;28;20064;-77
2021/01/30 14:14:31;;;;;;;5.03;1.60;;;8.20;99.90;;;;;;5075086;28;20460;-78
2021/01/30 14:16:57;;;;;;;3.67;1.50;;;8.20;99.90;;;;;;5070928;28;20058;-77